createdAt,value
2022-12-25T00:00:18.325Z,101782.80
2022-12-25T00:03:08.363Z,101776.00
2022-12-25T00:05:38.828Z,101778.00
2022-12-25T00:08:06.519Z,101773.40
2022-12-25T00:10:33.731Z,101780.40
2022-12-25T00:13:00.202Z,101776.40
2022-12-25T00:15:27.894Z,101788.00
2022-12-25T00:17:54.936Z,101788.00
2022-12-25T00:20:23.362Z,101788.80
2022-12-25T00:22:52.775Z,101790.60
2022-12-25T00:25:20.598Z,101793.00
2022-12-25T00:27:49.161Z,101792.20
2022-12-25T00:30:15.663Z,101795.20
2022-12-25T00:32:42.820Z,101800.20
2022-12-25T00:35:12.357Z,101796.40
2022-12-25T00:37:39.056Z,101793.60
2022-12-25T00:40:07.248Z,101789.80
2022-12-25T00:42:37.754Z,101787.60
2022-12-25T00:45:05.211Z,101797.00
2022-12-25T00:47:33.088Z,101798.80
2022-12-25T00:49:59.757Z,101808.00
2022-12-25T00:52:30.130Z,101804.20
2022-12-25T00:54:56.683Z,101795.40
2022-12-25T00:57:23.298Z,101798.80
2022-12-25T00:59:49.645Z,101800.60
2022-12-25T01:02:25.419Z,101802.60
2022-12-25T01:04:57.327Z,101802.00
2022-12-25T01:07:26.542Z,101799.60
2022-12-25T01:10:14.387Z,101796.60
2022-12-25T01:12:43.373Z,101795.40
2022-12-25T01:15:13.144Z,101804.80
2022-12-25T01:17:42.224Z,101807.80
2022-12-25T01:20:13.668Z,101802.20
2022-12-25T01:22:40.939Z,101804.80
2022-12-25T01:25:08.806Z,101808.60
2022-12-25T01:27:38.553Z,101808.40
2022-12-25T01:30:07.760Z,101808.20
2022-12-25T01:32:34.923Z,101808.40
2022-12-25T01:35:03.282Z,101816.80
2022-12-25T01:37:30.852Z,101812.80
2022-12-25T01:39:58.465Z,101815.00
2022-12-25T01:42:26.610Z,101814.40
2022-12-25T01:45:32.700Z,101811.60
2022-12-25T01:48:06.268Z,101813.40
2022-12-25T01:50:35.758Z,101815.20
2022-12-25T01:53:03.761Z,101821.20
2022-12-25T01:55:41.459Z,101826.20
2022-12-25T01:58:09.231Z,101829.60
2022-12-25T02:00:41.239Z,101829.40
2022-12-25T02:03:08.581Z,101820.60
2022-12-25T02:05:36.437Z,101824.00
2022-12-25T02:08:11.475Z,101820.40
2022-12-25T02:10:38.596Z,101818.60
2022-12-25T02:13:07.375Z,101823.00
2022-12-25T02:16:00.068Z,101826.60
2022-12-25T02:18:53.543Z,101825.40
2022-12-25T02:21:55.309Z,101821.60
2022-12-25T02:24:55.401Z,101812.40
2022-12-25T02:28:00.641Z,101804.80
2022-12-25T02:30:38.232Z,101799.40
2022-12-25T02:33:39.580Z,101790.20
2022-12-25T02:36:13.052Z,101794.60
2022-12-25T02:39:03.901Z,101784.80
2022-12-25T02:41:38.386Z,101786.40
2022-12-25T02:44:36.478Z,101792.60
2022-12-25T02:47:25.380Z,101800.40
2022-12-25T02:50:14.622Z,101815.00
2022-12-25T02:53:03.772Z,101824.40
2022-12-25T02:55:59.067Z,101822.80
2022-12-25T02:58:46.344Z,101806.60
2022-12-25T03:01:37.956Z,101801.80
2022-12-25T03:04:31.637Z,101813.20
2022-12-25T03:07:14.847Z,101792.60
2022-12-25T03:10:17.179Z,101785.80
2022-12-25T03:12:57.289Z,101786.40
2022-12-25T03:15:52.815Z,101782.40
2022-12-25T03:18:26.858Z,101773.00
2022-12-25T03:21:13.181Z,101764.00
2022-12-25T03:24:06.073Z,101758.60
2022-12-25T03:26:52.301Z,101760.60
2022-12-25T03:29:37.816Z,101758.40
2022-12-25T03:33:23.321Z,101749.20
2022-12-25T03:36:16.480Z,101755.80
2022-12-25T03:39:43.906Z,101758.00
2022-12-25T03:42:49.379Z,101756.40
2022-12-25T03:45:52.468Z,101740.60
2022-12-25T03:48:39.917Z,101723.40
2022-12-25T03:51:30.403Z,101727.20
2022-12-25T03:54:24.165Z,101734.40
2022-12-25T03:57:09.414Z,101736.60
2022-12-25T03:59:59.604Z,101740.60
2022-12-25T04:02:45.083Z,101738.80
2022-12-25T04:05:30.330Z,101734.00
2022-12-25T04:08:15.901Z,101741.40
2022-12-25T04:11:01.055Z,101745.00
2022-12-25T04:13:46.997Z,101731.20
2022-12-25T04:16:32.311Z,101730.00
2022-12-25T04:19:18.346Z,101728.60
2022-12-25T04:22:03.512Z,101722.80
2022-12-25T04:24:50.164Z,101720.40
2022-12-25T04:27:35.936Z,101714.80
2022-12-25T04:30:24.453Z,101722.60
2022-12-25T04:33:16.037Z,101729.40
2022-12-25T04:36:08.200Z,101723.00
2022-12-25T04:38:41.010Z,101728.60
2022-12-25T04:41:13.073Z,101729.20
2022-12-25T04:43:42.235Z,101721.80
2022-12-25T04:46:10.031Z,101719.80
2022-12-25T04:48:37.335Z,101719.00
2022-12-25T04:51:23.085Z,101718.40
2022-12-25T04:53:51.249Z,101717.80
2022-12-25T04:56:19.658Z,101711.60
2022-12-25T04:58:48.792Z,101712.40
2022-12-25T05:01:16.562Z,101714.60
2022-12-25T05:03:43.088Z,101706.20
2022-12-25T05:06:10.511Z,101707.20
2022-12-25T05:08:37.555Z,101706.00
2022-12-25T05:11:11.785Z,101703.80
2022-12-25T05:13:39.799Z,101702.60
2022-12-25T05:16:11.354Z,101710.20
2022-12-25T05:18:38.005Z,101703.20
2022-12-25T05:21:07.139Z,101696.40
2022-12-25T05:23:34.497Z,101697.00
2022-12-25T05:26:07.798Z,101697.80
2022-12-25T05:28:36.534Z,101688.00
2022-12-25T05:31:03.418Z,101686.20
2022-12-25T05:33:30.388Z,101687.00
2022-12-25T05:35:56.768Z,101691.40
2022-12-25T05:38:24.456Z,101687.40
2022-12-25T05:40:51.473Z,101687.40
2022-12-25T05:43:19.669Z,101695.80
2022-12-25T05:45:46.170Z,101687.40
2022-12-25T05:48:14.017Z,101679.20
2022-12-25T05:50:40.460Z,101678.60
2022-12-25T05:53:09.879Z,101675.60
2022-12-25T05:55:42.103Z,101676.20
2022-12-25T05:58:11.166Z,101675.40
2022-12-25T06:00:40.085Z,101669.40
2022-12-25T06:03:06.804Z,101661.20
2022-12-25T06:05:39.203Z,101664.20
2022-12-25T06:08:20.784Z,101669.00
2022-12-25T06:10:48.395Z,101669.60
2022-12-25T06:13:15.227Z,101660.00
2022-12-25T06:15:42.176Z,101653.60
2022-12-25T06:18:08.989Z,101653.40
2022-12-25T06:20:40.677Z,101647.00
2022-12-25T06:23:08.458Z,101643.80
2022-12-25T06:25:39.554Z,101636.80
2022-12-25T06:28:06.967Z,101635.20
2022-12-25T06:30:35.165Z,101646.80
2022-12-25T06:33:03.252Z,101644.00
2022-12-25T06:35:32.633Z,101643.20
2022-12-25T06:37:59.873Z,101642.00
2022-12-25T06:40:26.404Z,101650.20
2022-12-25T06:42:53.097Z,101641.60
2022-12-25T06:45:19.551Z,101635.20
2022-12-25T06:47:46.760Z,101640.20
2022-12-25T06:50:18.102Z,101630.20
2022-12-25T06:52:45.520Z,101623.20
2022-12-25T06:55:12.216Z,101615.40
2022-12-25T06:57:38.624Z,101612.40
2022-12-25T07:00:07.796Z,101618.00
2022-12-25T07:02:34.941Z,101623.60
2022-12-25T07:05:03.858Z,101628.00
2022-12-25T07:07:30.688Z,101625.20
2022-12-25T07:09:57.534Z,101632.20
2022-12-25T07:12:23.989Z,101630.80
2022-12-25T07:14:54.684Z,101622.00
2022-12-25T07:17:23.412Z,101631.40
2022-12-25T07:19:50.044Z,101631.60
2022-12-25T07:22:16.945Z,101641.60
2022-12-25T07:24:44.296Z,101644.40
2022-12-25T07:27:11.131Z,101636.20
2022-12-25T07:29:37.645Z,101636.60
2022-12-25T07:32:04.750Z,101636.80
2022-12-25T07:34:31.813Z,101633.20
2022-12-25T07:37:02.443Z,101634.80
2022-12-25T07:39:29.797Z,101634.00
2022-12-25T07:41:56.412Z,101633.80
2022-12-25T07:44:23.528Z,101634.80
2022-12-25T07:46:49.867Z,101629.20
2022-12-25T07:49:17.215Z,101629.80
2022-12-25T07:51:43.797Z,101626.80
2022-12-25T07:54:10.256Z,101626.20
2022-12-25T07:56:36.669Z,101622.00
2022-12-25T07:59:06.206Z,101621.20
2022-12-25T08:01:32.832Z,101612.00
2022-12-25T08:04:02.479Z,101614.80
2022-12-25T08:06:34.372Z,101606.60
2022-12-25T08:09:12.023Z,101598.00
2022-12-25T08:11:45.157Z,101592.20
2022-12-25T08:14:12.687Z,101599.40
2022-12-25T08:16:41.959Z,101593.80
2022-12-25T08:19:08.801Z,101597.80
2022-12-25T08:21:35.359Z,101603.20
2022-12-25T08:24:02.533Z,101609.60
2022-12-25T08:26:29.919Z,101606.20
2022-12-25T08:28:58.178Z,101601.40
2022-12-25T08:31:28.730Z,101595.60
2022-12-25T08:33:59.395Z,101588.20
2022-12-25T08:36:26.649Z,101578.60
2022-12-25T08:38:55.709Z,101568.40
2022-12-25T08:41:27.348Z,101565.80
2022-12-25T08:43:54.979Z,101556.00
2022-12-25T08:46:21.488Z,101556.80
2022-12-25T08:48:49.995Z,101548.20
2022-12-25T08:51:20.936Z,101540.80
2022-12-25T08:53:52.016Z,101546.40
2022-12-25T08:56:20.202Z,101546.60
2022-12-25T08:58:46.889Z,101543.20
2022-12-25T09:01:14.364Z,101543.80
2022-12-25T09:03:41.503Z,101539.20
2022-12-25T09:06:12.567Z,101541.80
2022-12-25T09:08:49.672Z,101545.20
2022-12-25T09:11:19.297Z,101540.40
2022-12-25T09:13:47.183Z,101549.00
2022-12-25T09:16:19.602Z,101546.40
2022-12-25T09:18:48.192Z,101546.80
2022-12-25T09:21:19.015Z,101549.80
2022-12-25T09:23:47.928Z,101552.40
2022-12-25T09:26:19.097Z,101546.00
2022-12-25T09:28:52.429Z,101545.60
2022-12-25T09:31:22.066Z,101539.40
2022-12-25T09:33:52.372Z,101534.80
2022-12-25T09:36:23.689Z,101529.40
2022-12-25T09:38:53.540Z,101526.80
2022-12-25T09:41:54.896Z,101519.80
2022-12-25T09:44:31.665Z,101510.20
2022-12-25T09:47:10.076Z,101516.00
2022-12-25T09:49:43.639Z,101525.20
2022-12-25T09:52:34.909Z,101533.80
2022-12-25T09:55:20.432Z,101528.00
2022-12-25T09:58:00.710Z,101520.00
2022-12-25T10:00:43.408Z,101518.60
2022-12-25T10:03:43.558Z,101516.40
2022-12-25T10:06:39.660Z,101509.80
2022-12-25T10:09:32.468Z,101501.00
2022-12-25T10:13:06.992Z,101496.00
2022-12-25T10:15:55.285Z,101487.80
2022-12-25T10:18:57.236Z,101476.40
2022-12-25T10:21:25.500Z,101473.40
2022-12-25T10:23:59.069Z,101462.00
2022-12-25T10:26:32.066Z,101451.00
2022-12-25T10:29:15.864Z,101444.00
2022-12-25T10:31:50.825Z,101437.20
2022-12-25T10:34:18.334Z,101427.00
2022-12-25T10:36:46.592Z,101425.80
2022-12-25T10:39:30.329Z,101421.60
2022-12-25T10:42:22.589Z,101428.20
2022-12-25T10:45:04.365Z,101422.40
2022-12-25T10:47:37.733Z,101421.00
2022-12-25T10:50:34.486Z,101420.80
2022-12-25T10:53:19.521Z,101414.40
2022-12-25T10:56:07.559Z,101419.60
2022-12-25T10:58:34.141Z,101409.80
2022-12-25T11:01:08.260Z,101407.00
2022-12-25T11:03:44.956Z,101407.00
2022-12-25T11:06:24.529Z,101409.00
2022-12-25T11:08:56.623Z,101403.60
2022-12-25T11:11:26.117Z,101400.60
2022-12-25T11:14:19.099Z,101392.80
2022-12-25T11:16:47.312Z,101399.80
2022-12-25T11:19:52.196Z,101396.80
2022-12-25T11:22:19.245Z,101383.60
2022-12-25T11:24:45.720Z,101382.20
2022-12-25T11:27:26.066Z,101379.20
2022-12-25T11:29:58.984Z,101381.20
2022-12-25T11:32:37.631Z,101367.60
2022-12-25T11:35:14.076Z,101380.00
2022-12-25T11:37:49.730Z,101373.60
2022-12-25T11:40:31.746Z,101370.00
2022-12-25T11:43:24.787Z,101369.80
2022-12-25T11:46:21.098Z,101372.40
2022-12-25T11:48:56.871Z,101361.80
2022-12-25T11:51:32.387Z,101368.60
2022-12-25T11:54:08.130Z,101371.40
2022-12-25T11:56:37.973Z,101366.80
2022-12-25T11:59:35.651Z,101370.80
2022-12-25T12:02:42.275Z,101357.60
2022-12-25T12:05:33.585Z,101339.80
2022-12-25T12:08:05.442Z,101330.60
2022-12-25T12:11:31.401Z,101322.40
2022-12-25T12:14:35.004Z,101316.60
2022-12-25T12:17:01.510Z,101308.60
2022-12-25T12:19:35.224Z,101309.40
2022-12-25T12:22:05.708Z,101309.20
2022-12-25T12:25:03.404Z,101308.20
2022-12-25T12:27:41.667Z,101306.80
2022-12-25T12:30:25.807Z,101302.00
2022-12-25T12:33:00.741Z,101295.80
2022-12-25T12:35:38.103Z,101296.20
2022-12-25T12:38:24.257Z,101288.40
2022-12-25T12:40:59.990Z,101293.40
2022-12-25T12:43:46.799Z,101289.20
2022-12-25T12:46:31.396Z,101292.00
2022-12-25T12:49:35.626Z,101299.20
2022-12-25T12:52:30.473Z,101296.00
2022-12-25T12:55:14.570Z,101289.00
2022-12-25T12:57:43.877Z,101283.80
2022-12-25T13:00:22.161Z,101283.20
2022-12-25T13:03:33.056Z,101270.20
2022-12-25T13:06:21.284Z,101254.80
2022-12-25T13:09:06.319Z,101252.00
2022-12-25T13:11:43.052Z,101238.40
2022-12-25T13:14:20.225Z,101245.80
2022-12-25T13:16:50.977Z,101246.40
2022-12-25T13:19:25.616Z,101243.80
2022-12-25T13:22:03.769Z,101237.40
2022-12-25T13:24:36.218Z,101229.20
2022-12-25T13:27:31.765Z,101221.40
2022-12-25T13:30:01.020Z,101233.60
2022-12-25T13:32:32.635Z,101229.60
2022-12-25T13:35:00.227Z,101227.20
2022-12-25T13:37:30.971Z,101229.80
2022-12-25T13:40:02.127Z,101231.40
2022-12-25T13:42:37.250Z,101237.40
2022-12-25T13:45:17.381Z,101222.60
2022-12-25T13:47:51.394Z,101219.60
2022-12-25T13:50:38.195Z,101221.40
2022-12-25T13:53:17.214Z,101223.60
2022-12-25T13:55:53.782Z,101217.20
2022-12-25T13:58:33.019Z,101221.80
2022-12-25T14:01:04.440Z,101220.20
2022-12-25T14:03:46.115Z,101216.00
2022-12-25T14:06:39.236Z,101213.60
2022-12-25T14:09:15.875Z,101220.20
2022-12-25T14:11:52.533Z,101217.60
2022-12-25T14:14:23.741Z,101208.40
2022-12-25T14:16:57.888Z,101215.80
2022-12-25T14:19:33.735Z,101209.20
2022-12-25T14:22:16.269Z,101211.80
2022-12-25T14:24:46.012Z,101206.80
2022-12-25T14:27:31.986Z,101199.80
2022-12-25T14:30:05.610Z,101204.40
2022-12-25T14:32:45.282Z,101207.00
2022-12-25T14:35:23.267Z,101194.60
2022-12-25T14:38:00.835Z,101195.80
2022-12-25T14:40:31.102Z,101189.80
2022-12-25T14:43:02.469Z,101190.80
2022-12-25T14:45:35.480Z,101189.40
2022-12-25T14:48:24.426Z,101188.40
2022-12-25T14:51:09.112Z,101187.40
2022-12-25T14:53:45.545Z,101190.80
2022-12-25T14:56:20.153Z,101178.80
2022-12-25T14:58:53.201Z,101181.60
2022-12-25T15:01:38.027Z,101184.80
2022-12-25T15:04:11.009Z,101181.00
2022-12-25T15:06:51.479Z,101171.40
2022-12-25T15:09:19.079Z,101163.40
2022-12-25T15:11:55.174Z,101163.40
2022-12-25T15:14:25.240Z,101159.80
2022-12-25T15:16:59.580Z,101154.00
2022-12-25T15:19:38.712Z,101154.60
2022-12-25T15:22:08.564Z,101155.40
2022-12-25T15:24:38.950Z,101150.40
2022-12-25T15:27:17.631Z,101149.60
2022-12-25T15:30:09.179Z,101134.00
2022-12-25T15:32:32.104Z,101134.80
2022-12-25T15:35:04.687Z,101131.40
2022-12-25T15:37:38.882Z,101131.80
2022-12-25T15:40:07.974Z,101124.60
2022-12-25T15:42:51.607Z,101131.00
2022-12-25T15:45:30.342Z,101131.80
2022-12-25T15:47:59.672Z,101124.60
2022-12-25T15:50:26.715Z,101119.00
2022-12-25T15:52:55.177Z,101116.40
2022-12-25T15:55:24.844Z,101112.20
2022-12-25T15:57:54.080Z,101111.20
2022-12-25T16:00:25.455Z,101106.60
2022-12-25T16:02:57.866Z,101104.80
2022-12-25T16:05:28.964Z,101104.60
2022-12-25T16:07:55.463Z,101111.40
2022-12-25T16:10:24.776Z,101109.20
2022-12-25T16:12:54.476Z,101110.60
2022-12-25T16:15:23.800Z,101105.80
2022-12-25T16:17:52.015Z,101103.40
2022-12-25T16:20:20.432Z,101101.00
2022-12-25T16:22:49.061Z,101106.80
2022-12-25T16:28:05.584Z,101102.80
2022-12-25T16:30:31.924Z,101100.60
2022-12-25T16:32:58.353Z,101098.40
2022-12-25T16:35:28.210Z,101092.60
2022-12-25T16:37:56.053Z,101095.00
2022-12-25T16:40:28.867Z,101089.80
2022-12-25T16:42:57.480Z,101077.80
2022-12-25T16:45:39.708Z,101079.20
2022-12-25T16:48:08.801Z,101079.00
2022-12-25T16:50:40.944Z,101073.60
2022-12-25T16:53:09.642Z,101068.80
2022-12-25T16:55:39.465Z,101061.20
2022-12-25T16:58:07.074Z,101053.40
2022-12-25T17:00:34.584Z,101041.80
2022-12-25T17:03:02.007Z,101036.00
2022-12-25T17:05:34.555Z,101038.00
2022-12-25T17:08:01.510Z,101032.20
2022-12-25T17:10:29.918Z,101029.60
2022-12-25T17:12:57.143Z,101016.00
2022-12-25T17:15:23.944Z,101015.80
2022-12-25T17:17:52.506Z,101012.00
2022-12-25T17:20:21.949Z,101007.60
2022-12-25T17:22:50.623Z,101001.80
2022-12-25T17:25:17.840Z,100996.40
2022-12-25T17:27:51.860Z,100991.40
2022-12-25T17:30:20.728Z,101002.40
2022-12-25T17:32:51.230Z,101000.20
2022-12-25T17:35:21.887Z,101000.60
2022-12-25T17:37:49.569Z,101000.40
2022-12-25T17:40:17.922Z,100998.80
2022-12-25T17:42:45.444Z,100991.80
2022-12-25T17:45:16.050Z,100990.00
2022-12-25T17:47:43.679Z,100990.60
2022-12-25T17:50:11.832Z,100990.20
2022-12-25T17:52:41.928Z,100990.00
2022-12-25T17:55:12.313Z,100987.80
2022-12-25T17:57:42.168Z,100983.40
2022-12-25T18:00:11.883Z,100978.40
2022-12-25T18:02:43.768Z,100980.40
2022-12-25T18:05:10.945Z,100975.40
2022-12-25T18:07:39.072Z,100965.80
2022-12-25T18:10:09.545Z,100965.00
2022-12-25T18:12:38.076Z,100964.60
2022-12-25T18:15:05.547Z,100959.60
2022-12-25T18:17:35.146Z,100957.60
2022-12-25T18:20:03.881Z,100958.60
2022-12-25T18:22:31.236Z,100949.00
2022-12-25T18:24:58.444Z,100953.00
2022-12-25T18:27:26.692Z,100954.60
2022-12-25T18:32:42.168Z,100948.80
2022-12-25T18:35:12.804Z,100950.20
2022-12-25T18:37:40.481Z,100950.20
2022-12-25T18:40:09.927Z,100935.00
2022-12-25T18:42:39.980Z,100940.20
2022-12-25T18:45:14.564Z,100935.00
2022-12-25T18:47:41.568Z,100930.60
2022-12-25T18:50:10.664Z,100929.00
2022-12-25T18:52:48.461Z,100937.60
2022-12-25T18:55:18.881Z,100938.00
2022-12-25T18:57:46.159Z,100938.00
2022-12-25T19:00:13.182Z,100931.40
2022-12-25T19:02:40.207Z,100934.80
2022-12-25T19:05:09.054Z,100931.40
2022-12-25T19:07:37.361Z,100933.60
2022-12-25T19:10:05.135Z,100937.60
2022-12-25T19:12:33.416Z,100937.00
2022-12-25T19:14:59.856Z,100928.00
2022-12-25T19:17:31.753Z,100930.00
2022-12-25T19:20:00.660Z,100922.40
2022-12-25T19:22:29.769Z,100924.20
2022-12-25T19:24:56.403Z,100926.80
2022-12-25T19:27:23.493Z,100924.40
2022-12-25T19:29:50.329Z,100926.00
2022-12-25T19:32:19.255Z,100924.60
2022-12-25T19:34:47.048Z,100922.60
2022-12-25T19:37:14.484Z,100920.80
2022-12-25T19:39:45.821Z,100913.80
2022-12-25T19:42:16.291Z,100904.80
2022-12-25T19:44:44.400Z,100904.60
2022-12-25T19:47:12.274Z,100905.20
2022-12-25T19:49:43.648Z,100900.40
2022-12-25T19:52:13.075Z,100896.20
2022-12-25T19:54:39.421Z,100892.60
2022-12-25T19:57:06.662Z,100881.00
2022-12-25T19:59:40.593Z,100872.20
2022-12-25T20:02:09.377Z,100871.20
2022-12-25T20:04:37.395Z,100882.20
2022-12-25T20:07:04.164Z,100871.20
2022-12-25T20:09:32.120Z,100867.00
2022-12-25T20:12:02.596Z,100868.20
2022-12-25T20:14:29.708Z,100862.20
2022-12-25T20:16:57.283Z,100861.20
2022-12-25T20:19:25.387Z,100855.00
2022-12-25T20:21:54.134Z,100856.40
2022-12-25T20:24:27.472Z,100850.20
2022-12-25T20:26:58.895Z,100852.80
2022-12-25T20:29:26.149Z,100849.80
2022-12-25T20:31:54.288Z,100847.60
2022-12-25T20:34:22.978Z,100851.00
2022-12-25T20:36:51.094Z,100845.80
2022-12-25T20:39:17.444Z,100846.00
2022-12-25T20:41:44.565Z,100851.20
2022-12-25T20:44:13.488Z,100847.00
2022-12-25T20:46:42.577Z,100852.40
2022-12-25T20:49:08.947Z,100839.80
2022-12-25T20:51:37.953Z,100835.60
2022-12-25T20:54:12.034Z,100834.60
2022-12-25T20:56:38.345Z,100835.00
2022-12-25T20:59:11.642Z,100838.40
2022-12-25T21:01:39.871Z,100830.40
2022-12-25T21:04:15.899Z,100825.00
2022-12-25T21:06:43.196Z,100826.00
2022-12-25T21:09:11.894Z,100824.00
2022-12-25T21:11:38.383Z,100826.40
2022-12-25T21:14:05.253Z,100815.80
2022-12-25T21:16:32.798Z,100816.20
2022-12-25T21:19:00.654Z,100818.20
2022-12-25T21:21:33.312Z,100807.40
2022-12-25T21:24:02.473Z,100803.60
2022-12-25T21:26:31.340Z,100800.80
2022-12-25T21:29:06.827Z,100797.20
2022-12-25T21:31:53.251Z,100791.40
2022-12-25T21:34:20.014Z,100791.00
2022-12-25T21:36:48.544Z,100793.60
2022-12-25T21:39:17.133Z,100788.00
2022-12-25T21:41:44.695Z,100792.40
2022-12-25T21:44:14.745Z,100784.00
2022-12-25T21:46:41.964Z,100785.60
2022-12-25T21:49:09.903Z,100786.60
2022-12-25T21:51:55.515Z,100781.00
2022-12-25T21:54:23.857Z,100785.60
2022-12-25T21:56:51.873Z,100784.60
2022-12-25T21:59:23.378Z,100777.40
2022-12-25T22:01:55.266Z,100778.00
2022-12-25T22:04:25.466Z,100777.00
2022-12-25T22:07:11.998Z,100781.20
2022-12-25T22:09:39.292Z,100776.00
2022-12-25T22:12:34.153Z,100768.00
2022-12-25T22:15:05.916Z,100769.80
2022-12-25T22:17:58.683Z,100763.60
2022-12-25T22:20:30.263Z,100762.80
2022-12-25T22:23:03.183Z,100752.20
2022-12-25T22:25:31.611Z,100746.00
2022-12-25T22:27:58.561Z,100743.00
2022-12-25T22:30:28.408Z,100742.00
2022-12-25T22:32:56.836Z,100750.40
2022-12-25T22:35:26.902Z,100747.20
2022-12-25T22:37:56.676Z,100735.80
2022-12-25T22:40:23.820Z,100731.00
2022-12-25T22:42:57.201Z,100731.60
2022-12-25T22:45:27.474Z,100726.80
2022-12-25T22:47:56.124Z,100726.60
2022-12-25T22:50:24.959Z,100723.40
2022-12-25T22:52:51.971Z,100719.20
2022-12-25T22:55:20.139Z,100716.60
2022-12-25T22:57:49.607Z,100718.40
2022-12-25T23:00:16.613Z,100717.40
2022-12-25T23:02:45.515Z,100718.80
2022-12-25T23:05:14.567Z,100721.60
2022-12-25T23:07:41.637Z,100713.20
2022-12-25T23:10:10.770Z,100713.60
2022-12-25T23:12:57.870Z,100714.60
2022-12-25T23:15:26.943Z,100710.20
2022-12-25T23:18:14.937Z,100706.60
2022-12-25T23:21:00.730Z,100709.00
2022-12-25T23:23:46.661Z,100710.60
2022-12-25T23:26:16.822Z,100710.60
2022-12-25T23:29:02.059Z,100697.20
2022-12-25T23:31:39.752Z,100700.00
2022-12-25T23:34:08.044Z,100695.60
2022-12-25T23:36:35.132Z,100689.00
2022-12-25T23:39:09.679Z,100689.80
2022-12-25T23:41:41.369Z,100693.40
2022-12-25T23:44:11.675Z,100696.20
2022-12-25T23:46:41.604Z,100687.80
2022-12-25T23:49:22.449Z,100687.60
2022-12-25T23:51:49.836Z,100686.80
2022-12-25T23:54:22.632Z,100675.60
2022-12-25T23:56:50.520Z,100671.80
2022-12-25T23:59:18.914Z,100668.60
